sensor_id;sensor_type;location;lat;lon;timestamp;P1;durP1;ratioP1;P2;durP2;ratioP2
20976;SDS011;10647;51.016;3.720;2023-05-10T00:00:35;66.40;;;18.00;;
20976;SDS011;10647;51.016;3.720;2023-05-10T00:03:03;58.43;;;18.00;;
20976;SDS011;10647;51.016;3.720;2023-05-10T00:05:31;61.87;;;18.70;;
20976;SDS011;10647;51.016;3.720;2023-05-10T00:07:59;61.57;;;17.43;;
20976;SDS011;10647;51.016;3.720;2023-05-10T00:10:27;66.10;;;18.43;;
20976;SDS011;10647;51.016;3.720;2023-05-10T00:12:55;53.37;;;17.20;;
20976;SDS011;10647;51.016;3.720;2023-05-10T00:15:22;53.50;;;17.43;;
20976;SDS011;10647;51.016;3.720;2023-05-10T00:17:50;68.60;;;19.60;;
20976;SDS011;10647;51.016;3.720;2023-05-10T00:20:17;62.43;;;18.57;;
20976;SDS011;10647;51.016;3.720;2023-05-10T00:22:45;61.27;;;19.23;;
20976;SDS011;10647;51.016;3.720;2023-05-10T00:25:12;65.60;;;20.20;;
20976;SDS011;10647;51.016;3.720;2023-05-10T00:27:40;70.17;;;20.17;;
20976;SDS011;10647;51.016;3.720;2023-05-10T00:30:08;69.73;;;20.73;;
20976;SDS011;10647;51.016;3.720;2023-05-10T00:32:35;72.57;;;21.03;;
20976;SDS011;10647;51.016;3.720;2023-05-10T00:35:03;76.80;;;22.60;;
20976;SDS011;10647;51.016;3.720;2023-05-10T00:37:31;77.40;;;22.07;;
20976;SDS011;10647;51.016;3.720;2023-05-10T00:39:58;76.63;;;22.97;;
20976;SDS011;10647;51.016;3.720;2023-05-10T00:42:26;76.20;;;22.93;;
20976;SDS011;10647;51.016;3.720;2023-05-10T00:44:54;73.93;;;24.37;;
20976;SDS011;10647;51.016;3.720;2023-05-10T00:47:22;80.77;;;24.33;;
20976;SDS011;10647;51.016;3.720;2023-05-10T00:49:50;77.77;;;22.47;;
20976;SDS011;10647;51.016;3.720;2023-05-10T00:52:18;77.57;;;23.40;;
20976;SDS011;10647;51.016;3.720;2023-05-10T00:54:45;81.80;;;23.83;;
20976;SDS011;10647;51.016;3.720;2023-05-10T00:57:14;84.70;;;23.93;;
20976;SDS011;10647;51.016;3.720;2023-05-10T00:59:41;77.53;;;24.30;;
20976;SDS011;10647;51.016;3.720;2023-05-10T01:02:09;91.53;;;25.40;;
20976;SDS011;10647;51.016;3.720;2023-05-10T01:04:37;78.03;;;24.13;;
20976;SDS011;10647;51.016;3.720;2023-05-10T01:07:05;97.87;;;26.87;;
20976;SDS011;10647;51.016;3.720;2023-05-10T01:09:32;90.67;;;27.00;;
20976;SDS011;10647;51.016;3.720;2023-05-10T01:12:01;97.93;;;28.33;;
20976;SDS011;10647;51.016;3.720;2023-05-10T01:14:29;98.63;;;29.73;;
20976;SDS011;10647;51.016;3.720;2023-05-10T01:16:57;95.37;;;28.93;;
20976;SDS011;10647;51.016;3.720;2023-05-10T01:19:26;97.70;;;29.27;;
20976;SDS011;10647;51.016;3.720;2023-05-10T01:22:05;95.20;;;29.13;;
20976;SDS011;10647;51.016;3.720;2023-05-10T01:24:50;97.80;;;27.10;;
20976;SDS011;10647;51.016;3.720;2023-05-10T01:33:10;96.33;;;27.63;;
20976;SDS011;10647;51.016;3.720;2023-05-10T01:36:10;93.90;;;27.90;;
20976;SDS011;10647;51.016;3.720;2023-05-10T01:38:53;87.40;;;26.50;;
20976;SDS011;10647;51.016;3.720;2023-05-10T01:44:42;102.00;;;27.53;;
20976;SDS011;10647;51.016;3.720;2023-05-10T01:50:22;104.17;;;28.77;;
20976;SDS011;10647;51.016;3.720;2023-05-10T01:52:53;103.20;;;30.20;;
20976;SDS011;10647;51.016;3.720;2023-05-10T01:55:25;106.53;;;29.17;;
20976;SDS011;10647;51.016;3.720;2023-05-10T01:58:15;113.00;;;32.23;;
20976;SDS011;10647;51.016;3.720;2023-05-10T02:01:00;111.03;;;29.83;;
20976;SDS011;10647;51.016;3.720;2023-05-10T02:03:30;105.13;;;28.97;;
20976;SDS011;10647;51.016;3.720;2023-05-10T02:06:00;109.20;;;29.97;;
20976;SDS011;10647;51.016;3.720;2023-05-10T02:08:30;106.83;;;29.80;;
20976;SDS011;10647;51.016;3.720;2023-05-10T02:11:18;101.87;;;27.33;;
20976;SDS011;10647;51.016;3.720;2023-05-10T02:13:47;84.70;;;26.83;;
20976;SDS011;10647;51.016;3.720;2023-05-10T02:16:18;87.50;;;25.57;;
20976;SDS011;10647;51.016;3.720;2023-05-10T02:18:47;84.13;;;25.73;;
20976;SDS011;10647;51.016;3.720;2023-05-10T02:21:20;87.67;;;26.17;;
20976;SDS011;10647;51.016;3.720;2023-05-10T02:23:49;89.80;;;26.37;;
20976;SDS011;10647;51.016;3.720;2023-05-10T02:26:20;87.07;;;25.10;;
20976;SDS011;10647;51.016;3.720;2023-05-10T02:28:51;87.17;;;25.13;;
20976;SDS011;10647;51.016;3.720;2023-05-10T02:31:20;83.57;;;24.20;;
20976;SDS011;10647;51.016;3.720;2023-05-10T02:33:49;83.23;;;25.33;;
20976;SDS011;10647;51.016;3.720;2023-05-10T02:36:18;85.80;;;25.97;;
20976;SDS011;10647;51.016;3.720;2023-05-10T02:38:49;80.27;;;24.07;;
20976;SDS011;10647;51.016;3.720;2023-05-10T02:41:18;78.63;;;24.90;;
20976;SDS011;10647;51.016;3.720;2023-05-10T02:43:51;70.97;;;24.43;;
20976;SDS011;10647;51.016;3.720;2023-05-10T02:46:28;64.17;;;22.90;;
20976;SDS011;10647;51.016;3.720;2023-05-10T02:49:01;67.67;;;19.80;;
20976;SDS011;10647;51.016;3.720;2023-05-10T02:51:30;63.60;;;22.93;;
20976;SDS011;10647;51.016;3.720;2023-05-10T02:54:20;61.60;;;21.77;;
20976;SDS011;10647;51.016;3.720;2023-05-10T02:56:51;63.37;;;21.20;;
20976;SDS011;10647;51.016;3.720;2023-05-10T02:59:21;71.77;;;22.50;;
20976;SDS011;10647;51.016;3.720;2023-05-10T03:01:49;67.70;;;22.67;;
20976;SDS011;10647;51.016;3.720;2023-05-10T03:04:16;67.87;;;22.03;;
20976;SDS011;10647;51.016;3.720;2023-05-10T03:06:44;62.60;;;21.90;;
20976;SDS011;10647;51.016;3.720;2023-05-10T03:09:12;59.07;;;19.90;;
20976;SDS011;10647;51.016;3.720;2023-05-10T03:11:55;63.90;;;21.57;;
20976;SDS011;10647;51.016;3.720;2023-05-10T03:20:01;64.47;;;21.60;;
20976;SDS011;10647;51.016;3.720;2023-05-10T03:22:32;57.83;;;20.40;;
20976;SDS011;10647;51.016;3.720;2023-05-10T03:25:13;52.00;;;21.17;;
20976;SDS011;10647;51.016;3.720;2023-05-10T03:30:27;57.53;;;21.37;;
20976;SDS011;10647;51.016;3.720;2023-05-10T03:32:55;52.50;;;21.30;;
20976;SDS011;10647;51.016;3.720;2023-05-10T03:37:53;50.33;;;20.30;;
20976;SDS011;10647;51.016;3.720;2023-05-10T03:40:22;51.40;;;20.43;;
20976;SDS011;10647;51.016;3.720;2023-05-10T03:42:50;52.27;;;21.17;;
20976;SDS011;10647;51.016;3.720;2023-05-10T03:45:18;57.23;;;18.77;;
20976;SDS011;10647;51.016;3.720;2023-05-10T03:47:45;49.33;;;20.47;;
20976;SDS011;10647;51.016;3.720;2023-05-10T03:50:13;52.90;;;22.00;;
20976;SDS011;10647;51.016;3.720;2023-05-10T03:52:40;52.57;;;20.67;;
20976;SDS011;10647;51.016;3.720;2023-05-10T03:55:08;53.67;;;20.80;;
20976;SDS011;10647;51.016;3.720;2023-05-10T03:57:36;50.67;;;20.67;;
20976;SDS011;10647;51.016;3.720;2023-05-10T04:00:03;55.03;;;20.73;;
20976;SDS011;10647;51.016;3.720;2023-05-10T04:02:31;50.17;;;20.90;;
20976;SDS011;10647;51.016;3.720;2023-05-10T04:04:59;49.70;;;21.07;;
20976;SDS011;10647;51.016;3.720;2023-05-10T04:07:26;46.90;;;21.47;;
20976;SDS011;10647;51.016;3.720;2023-05-10T04:09:54;49.13;;;21.00;;
20976;SDS011;10647;51.016;3.720;2023-05-10T04:12:22;47.33;;;20.20;;
20976;SDS011;10647;51.016;3.720;2023-05-10T04:14:50;55.00;;;21.30;;
20976;SDS011;10647;51.016;3.720;2023-05-10T04:17:18;50.70;;;20.90;;
20976;SDS011;10647;51.016;3.720;2023-05-10T04:19:45;54.47;;;21.20;;
20976;SDS011;10647;51.016;3.720;2023-05-10T04:22:13;47.37;;;20.83;;
20976;SDS011;10647;51.016;3.720;2023-05-10T04:24:41;51.87;;;20.50;;
20976;SDS011;10647;51.016;3.720;2023-05-10T04:27:09;49.63;;;21.73;;
20976;SDS011;10647;51.016;3.720;2023-05-10T04:29:37;47.90;;;21.97;;
20976;SDS011;10647;51.016;3.720;2023-05-10T04:32:04;52.50;;;21.50;;
20976;SDS011;10647;51.016;3.720;2023-05-10T04:34:32;49.57;;;22.10;;
20976;SDS011;10647;51.016;3.720;2023-05-10T04:36:59;50.43;;;21.90;;
20976;SDS011;10647;51.016;3.720;2023-05-10T04:39:27;49.30;;;21.93;;
20976;SDS011;10647;51.016;3.720;2023-05-10T04:41:55;49.63;;;22.00;;
20976;SDS011;10647;51.016;3.720;2023-05-10T04:44:22;48.50;;;23.20;;
20976;SDS011;10647;51.016;3.720;2023-05-10T04:46:50;51.60;;;21.93;;
20976;SDS011;10647;51.016;3.720;2023-05-10T04:49:17;48.83;;;21.43;;
20976;SDS011;10647;51.016;3.720;2023-05-10T04:51:45;51.60;;;21.87;;
20976;SDS011;10647;51.016;3.720;2023-05-10T04:54:13;54.30;;;22.70;;
20976;SDS011;10647;51.016;3.720;2023-05-10T04:56:41;53.23;;;22.93;;
20976;SDS011;10647;51.016;3.720;2023-05-10T04:59:09;51.53;;;23.27;;
20976;SDS011;10647;51.016;3.720;2023-05-10T05:01:36;48.43;;;21.47;;
20976;SDS011;10647;51.016;3.720;2023-05-10T05:04:06;51.03;;;22.63;;
20976;SDS011;10647;51.016;3.720;2023-05-10T05:06:33;48.40;;;22.40;;
20976;SDS011;10647;51.016;3.720;2023-05-10T05:09:01;49.03;;;22.33;;
20976;SDS011;10647;51.016;3.720;2023-05-10T05:11:29;47.03;;;22.10;;
20976;SDS011;10647;51.016;3.720;2023-05-10T05:13:56;50.57;;;23.60;;
20976;SDS011;10647;51.016;3.720;2023-05-10T05:16:24;52.87;;;22.40;;
20976;SDS011;10647;51.016;3.720;2023-05-10T05:18:52;53.47;;;23.70;;
20976;SDS011;10647;51.016;3.720;2023-05-10T05:21:20;49.13;;;23.00;;
20976;SDS011;10647;51.016;3.720;2023-05-10T05:23:48;53.20;;;24.00;;
20976;SDS011;10647;51.016;3.720;2023-05-10T05:26:21;50.57;;;24.07;;
20976;SDS011;10647;51.016;3.720;2023-05-10T05:31:21;53.70;;;23.37;;
20976;SDS011;10647;51.016;3.720;2023-05-10T05:33:49;55.30;;;26.97;;
20976;SDS011;10647;51.016;3.720;2023-05-10T05:36:17;62.47;;;29.23;;
20976;SDS011;10647;51.016;3.720;2023-05-10T05:38:45;56.23;;;25.27;;
20976;SDS011;10647;51.016;3.720;2023-05-10T05:41:13;51.47;;;25.40;;
20976;SDS011;10647;51.016;3.720;2023-05-10T05:43:41;58.30;;;26.43;;
20976;SDS011;10647;51.016;3.720;2023-05-10T05:46:08;48.10;;;24.10;;
20976;SDS011;10647;51.016;3.720;2023-05-10T05:48:36;53.33;;;26.60;;
20976;SDS011;10647;51.016;3.720;2023-05-10T05:51:03;56.97;;;25.70;;
20976;SDS011;10647;51.016;3.720;2023-05-10T05:53:31;51.00;;;24.47;;
20976;SDS011;10647;51.016;3.720;2023-05-10T05:56:00;54.67;;;26.40;;
20976;SDS011;10647;51.016;3.720;2023-05-10T05:58:28;57.57;;;26.57;;
20976;SDS011;10647;51.016;3.720;2023-05-10T06:00:55;60.00;;;26.97;;
20976;SDS011;10647;51.016;3.720;2023-05-10T06:03:23;58.17;;;26.10;;
20976;SDS011;10647;51.016;3.720;2023-05-10T06:05:50;64.77;;;27.27;;
20976;SDS011;10647;51.016;3.720;2023-05-10T06:08:18;56.60;;;27.83;;
20976;SDS011;10647;51.016;3.720;2023-05-10T06:10:46;56.13;;;27.30;;
20976;SDS011;10647;51.016;3.720;2023-05-10T06:13:13;56.80;;;27.90;;
20976;SDS011;10647;51.016;3.720;2023-05-10T06:15:41;54.63;;;28.30;;
20976;SDS011;10647;51.016;3.720;2023-05-10T06:18:08;62.53;;;27.77;;
20976;SDS011;10647;51.016;3.720;2023-05-10T06:20:36;52.00;;;27.67;;
20976;SDS011;10647;51.016;3.720;2023-05-10T06:23:05;59.77;;;28.57;;
20976;SDS011;10647;51.016;3.720;2023-05-10T06:25:32;55.80;;;27.57;;
20976;SDS011;10647;51.016;3.720;2023-05-10T06:28:00;56.70;;;28.00;;
20976;SDS011;10647;51.016;3.720;2023-05-10T06:30:27;57.27;;;27.37;;
20976;SDS011;10647;51.016;3.720;2023-05-10T06:32:56;57.87;;;28.33;;
20976;SDS011;10647;51.016;3.720;2023-05-10T06:35:26;66.53;;;29.73;;
20976;SDS011;10647;51.016;3.720;2023-05-10T06:37:54;58.37;;;28.27;;
20976;SDS011;10647;51.016;3.720;2023-05-10T06:40:22;59.53;;;27.97;;
20976;SDS011;10647;51.016;3.720;2023-05-10T06:42:49;57.83;;;28.27;;
20976;SDS011;10647;51.016;3.720;2023-05-10T06:45:17;58.40;;;27.57;;
20976;SDS011;10647;51.016;3.720;2023-05-10T06:47:45;61.17;;;29.47;;
20976;SDS011;10647;51.016;3.720;2023-05-10T06:50:13;68.50;;;28.60;;
20976;SDS011;10647;51.016;3.720;2023-05-10T06:52:41;59.13;;;28.60;;
20976;SDS011;10647;51.016;3.720;2023-05-10T06:55:08;54.40;;;27.83;;
20976;SDS011;10647;51.016;3.720;2023-05-10T06:57:38;57.23;;;27.23;;
20976;SDS011;10647;51.016;3.720;2023-05-10T07:00:05;50.53;;;25.43;;
20976;SDS011;10647;51.016;3.720;2023-05-10T07:02:35;54.77;;;25.40;;
20976;SDS011;10647;51.016;3.720;2023-05-10T07:05:03;52.50;;;25.60;;
20976;SDS011;10647;51.016;3.720;2023-05-10T07:07:31;52.93;;;25.67;;
20976;SDS011;10647;51.016;3.720;2023-05-10T07:09:58;43.17;;;25.73;;
20976;SDS011;10647;51.016;3.720;2023-05-10T07:12:26;49.47;;;25.47;;
20976;SDS011;10647;51.016;3.720;2023-05-10T07:14:53;51.83;;;24.83;;
20976;SDS011;10647;51.016;3.720;2023-05-10T07:17:21;46.67;;;24.60;;
20976;SDS011;10647;51.016;3.720;2023-05-10T07:19:48;44.30;;;24.30;;
20976;SDS011;10647;51.016;3.720;2023-05-10T07:22:17;51.97;;;24.70;;
20976;SDS011;10647;51.016;3.720;2023-05-10T07:24:45;47.53;;;24.33;;
20976;SDS011;10647;51.016;3.720;2023-05-10T07:27:13;52.60;;;24.33;;
20976;SDS011;10647;51.016;3.720;2023-05-10T07:29:41;47.03;;;24.90;;
20976;SDS011;10647;51.016;3.720;2023-05-10T07:32:08;45.70;;;24.10;;
20976;SDS011;10647;51.016;3.720;2023-05-10T07:34:36;43.80;;;23.80;;
20976;SDS011;10647;51.016;3.720;2023-05-10T07:37:04;42.00;;;23.57;;
20976;SDS011;10647;51.016;3.720;2023-05-10T07:39:33;42.53;;;23.20;;
20976;SDS011;10647;51.016;3.720;2023-05-10T07:42:00;39.73;;;22.33;;
20976;SDS011;10647;51.016;3.720;2023-05-10T07:44:28;44.77;;;22.33;;
20976;SDS011;10647;51.016;3.720;2023-05-10T07:46:56;42.27;;;23.07;;
20976;SDS011;10647;51.016;3.720;2023-05-10T07:49:23;39.87;;;22.17;;
20976;SDS011;10647;51.016;3.720;2023-05-10T07:51:51;41.63;;;22.83;;
20976;SDS011;10647;51.016;3.720;2023-05-10T07:54:19;44.27;;;24.60;;
20976;SDS011;10647;51.016;3.720;2023-05-10T07:56:47;48.90;;;24.33;;
20976;SDS011;10647;51.016;3.720;2023-05-10T07:59:15;47.80;;;24.30;;
20976;SDS011;10647;51.016;3.720;2023-05-10T08:01:43;42.27;;;23.80;;
20976;SDS011;10647;51.016;3.720;2023-05-10T08:04:12;51.30;;;25.13;;
20976;SDS011;10647;51.016;3.720;2023-05-10T08:06:40;48.37;;;24.17;;
20976;SDS011;10647;51.016;3.720;2023-05-10T08:09:08;44.08;;;23.95;;
20976;SDS011;10647;51.016;3.720;2023-05-10T08:11:36;44.90;;;23.50;;
20976;SDS011;10647;51.016;3.720;2023-05-10T08:14:04;50.83;;;24.17;;
20976;SDS011;10647;51.016;3.720;2023-05-10T08:16:31;44.03;;;22.77;;
20976;SDS011;10647;51.016;3.720;2023-05-10T08:19:00;47.27;;;22.53;;
20976;SDS011;10647;51.016;3.720;2023-05-10T08:21:28;41.23;;;20.73;;
20976;SDS011;10647;51.016;3.720;2023-05-10T08:23:56;41.00;;;20.37;;
20976;SDS011;10647;51.016;3.720;2023-05-10T08:26:24;42.47;;;20.93;;
20976;SDS011;10647;51.016;3.720;2023-05-10T08:28:53;40.87;;;20.73;;
20976;SDS011;10647;51.016;3.720;2023-05-10T08:31:20;44.43;;;20.53;;
20976;SDS011;10647;51.016;3.720;2023-05-10T08:33:48;39.97;;;19.50;;
20976;SDS011;10647;51.016;3.720;2023-05-10T08:36:17;46.60;;;20.43;;
20976;SDS011;10647;51.016;3.720;2023-05-10T08:38:46;41.70;;;19.87;;
20976;SDS011;10647;51.016;3.720;2023-05-10T08:41:22;34.07;;;19.00;;
20976;SDS011;10647;51.016;3.720;2023-05-10T08:43:52;41.50;;;19.23;;
20976;SDS011;10647;51.016;3.720;2023-05-10T08:46:21;41.43;;;18.13;;
20976;SDS011;10647;51.016;3.720;2023-05-10T08:48:50;36.90;;;18.07;;
20976;SDS011;10647;51.016;3.720;2023-05-10T08:51:18;37.43;;;18.03;;
20976;SDS011;10647;51.016;3.720;2023-05-10T08:53:47;32.87;;;16.10;;
20976;SDS011;10647;51.016;3.720;2023-05-10T08:56:15;39.23;;;17.83;;
20976;SDS011;10647;51.016;3.720;2023-05-10T08:58:43;38.10;;;18.20;;
20976;SDS011;10647;51.016;3.720;2023-05-10T09:01:11;32.10;;;17.17;;
20976;SDS011;10647;51.016;3.720;2023-05-10T09:03:40;40.57;;;18.07;;
20976;SDS011;10647;51.016;3.720;2023-05-10T09:06:07;37.00;;;18.60;;
20976;SDS011;10647;51.016;3.720;2023-05-10T09:08:35;35.50;;;17.73;;
20976;SDS011;10647;51.016;3.720;2023-05-10T09:11:24;37.27;;;17.50;;
20976;SDS011;10647;51.016;3.720;2023-05-10T09:13:53;32.13;;;17.40;;
20976;SDS011;10647;51.016;3.720;2023-05-10T09:16:22;32.73;;;17.67;;
20976;SDS011;10647;51.016;3.720;2023-05-10T09:18:50;27.83;;;16.83;;
20976;SDS011;10647;51.016;3.720;2023-05-10T09:21:19;31.43;;;17.37;;
20976;SDS011;10647;51.016;3.720;2023-05-10T09:23:47;29.80;;;16.30;;
20976;SDS011;10647;51.016;3.720;2023-05-10T09:26:15;30.33;;;16.73;;
20976;SDS011;10647;51.016;3.720;2023-05-10T09:28:55;30.90;;;16.17;;
20976;SDS011;10647;51.016;3.720;2023-05-10T09:31:42;31.93;;;16.55;;
20976;SDS011;10647;51.016;3.720;2023-05-10T09:34:30;27.40;;;15.18;;
20976;SDS011;10647;51.016;3.720;2023-05-10T09:37:02;27.37;;;15.10;;
20976;SDS011;10647;51.016;3.720;2023-05-10T09:39:35;26.73;;;15.67;;
20976;SDS011;10647;51.016;3.720;2023-05-10T09:42:04;25.90;;;15.13;;
20976;SDS011;10647;51.016;3.720;2023-05-10T09:44:34;24.65;;;14.80;;
20976;SDS011;10647;51.016;3.720;2023-05-10T09:47:03;30.05;;;15.28;;
20976;SDS011;10647;51.016;3.720;2023-05-10T09:49:31;27.10;;;14.85;;
20976;SDS011;10647;51.016;3.720;2023-05-10T09:52:05;25.17;;;15.10;;
20976;SDS011;10647;51.016;3.720;2023-05-10T09:54:34;25.02;;;14.78;;
20976;SDS011;10647;51.016;3.720;2023-05-10T09:57:02;27.30;;;14.68;;
20976;SDS011;10647;51.016;3.720;2023-05-10T09:59:29;25.23;;;14.40;;
20976;SDS011;10647;51.016;3.720;2023-05-10T10:01:59;24.52;;;14.33;;
20976;SDS011;10647;51.016;3.720;2023-05-10T10:09:48;29.00;;;13.13;;
20976;SDS011;10647;51.016;3.720;2023-05-10T10:12:16;23.95;;;14.38;;
20976;SDS011;10647;51.016;3.720;2023-05-10T10:14:45;25.27;;;13.70;;
20976;SDS011;10647;51.016;3.720;2023-05-10T10:17:15;24.43;;;13.45;;
20976;SDS011;10647;51.016;3.720;2023-05-10T10:19:43;24.10;;;13.43;;
20976;SDS011;10647;51.016;3.720;2023-05-10T10:22:12;23.95;;;14.03;;
20976;SDS011;10647;51.016;3.720;2023-05-10T10:24:39;24.95;;;14.18;;
20976;SDS011;10647;51.016;3.720;2023-05-10T10:28:09;22.80;;;13.28;;
20976;SDS011;10647;51.016;3.720;2023-05-10T10:30:13;23.60;;;12.95;;
20976;SDS011;10647;51.016;3.720;2023-05-10T10:35:30;21.87;;;13.30;;
20976;SDS011;10647;51.016;3.720;2023-05-10T10:38:04;21.85;;;12.33;;
20976;SDS011;10647;51.016;3.720;2023-05-10T10:40:35;19.02;;;12.28;;
20976;SDS011;10647;51.016;3.720;2023-05-10T10:51:36;20.35;;;12.90;;
20976;SDS011;10647;51.016;3.720;2023-05-10T10:54:11;20.85;;;13.50;;
20976;SDS011;10647;51.016;3.720;2023-05-10T10:56:38;20.57;;;13.62;;
20976;SDS011;10647;51.016;3.720;2023-05-10T11:01:36;24.60;;;15.28;;
20976;SDS011;10647;51.016;3.720;2023-05-10T11:06:42;21.85;;;14.98;;
20976;SDS011;10647;51.016;3.720;2023-05-10T11:09:10;21.30;;;14.28;;
20976;SDS011;10647;51.016;3.720;2023-05-10T11:11:51;23.27;;;14.58;;
20976;SDS011;10647;51.016;3.720;2023-05-10T11:14:24;22.10;;;14.28;;
20976;SDS011;10647;51.016;3.720;2023-05-10T11:20:10;25.02;;;15.35;;
20976;SDS011;10647;51.016;3.720;2023-05-10T11:22:52;27.85;;;16.40;;
20976;SDS011;10647;51.016;3.720;2023-05-10T11:25:26;25.60;;;15.93;;
20976;SDS011;10647;51.016;3.720;2023-05-10T11:27:55;25.23;;;16.93;;
20976;SDS011;10647;51.016;3.720;2023-05-10T11:30:23;26.33;;;18.62;;
20976;SDS011;10647;51.016;3.720;2023-05-10T11:32:51;29.95;;;18.90;;
20976;SDS011;10647;51.016;3.720;2023-05-10T11:35:18;32.13;;;20.43;;
20976;SDS011;10647;51.016;3.720;2023-05-10T11:37:47;30.43;;;19.53;;
20976;SDS011;10647;51.016;3.720;2023-05-10T11:40:15;33.20;;;20.65;;
20976;SDS011;10647;51.016;3.720;2023-05-10T11:42:42;32.48;;;20.27;;
20976;SDS011;10647;51.016;3.720;2023-05-10T11:45:11;36.25;;;21.70;;
20976;SDS011;10647;51.016;3.720;2023-05-10T11:47:38;34.83;;;21.90;;
20976;SDS011;10647;51.016;3.720;2023-05-10T11:50:08;38.80;;;21.73;;
20976;SDS011;10647;51.016;3.720;2023-05-10T11:52:37;35.65;;;21.97;;
20976;SDS011;10647;51.016;3.720;2023-05-10T11:55:04;31.33;;;20.40;;
20976;SDS011;10647;51.016;3.720;2023-05-10T11:57:32;30.15;;;19.67;;
20976;SDS011;10647;51.016;3.720;2023-05-10T12:00:06;25.55;;;18.75;;
20976;SDS011;10647;51.016;3.720;2023-05-10T12:02:34;26.25;;;17.82;;
20976;SDS011;10647;51.016;3.720;2023-05-10T12:05:02;27.73;;;18.67;;
20976;SDS011;10647;51.016;3.720;2023-05-10T12:07:31;26.60;;;18.50;;
20976;SDS011;10647;51.016;3.720;2023-05-10T12:10:05;26.55;;;18.52;;
20976;SDS011;10647;51.016;3.720;2023-05-10T12:12:35;26.42;;;16.77;;
20976;SDS011;10647;51.016;3.720;2023-05-10T12:17:46;29.70;;;17.98;;
20976;SDS011;10647;51.016;3.720;2023-05-10T12:20:22;24.50;;;17.10;;
20976;SDS011;10647;51.016;3.720;2023-05-10T12:22:51;22.65;;;16.10;;
20976;SDS011;10647;51.016;3.720;2023-05-10T12:27:57;29.55;;;17.48;;
20976;SDS011;10647;51.016;3.720;2023-05-10T12:30:22;28.60;;;17.73;;
20976;SDS011;10647;51.016;3.720;2023-05-10T12:32:52;27.45;;;17.62;;
20976;SDS011;10647;51.016;3.720;2023-05-10T12:35:21;27.80;;;18.57;;
20976;SDS011;10647;51.016;3.720;2023-05-10T12:37:52;31.73;;;18.95;;
20976;SDS011;10647;51.016;3.720;2023-05-10T12:40:21;35.68;;;18.00;;
20976;SDS011;10647;51.016;3.720;2023-05-10T12:42:48;29.67;;;18.05;;
20976;SDS011;10647;51.016;3.720;2023-05-10T12:45:18;40.73;;;19.90;;
20976;SDS011;10647;51.016;3.720;2023-05-10T12:47:45;35.28;;;19.60;;
20976;SDS011;10647;51.016;3.720;2023-05-10T12:50:13;32.93;;;19.55;;
20976;SDS011;10647;51.016;3.720;2023-05-10T12:55:11;35.10;;;18.80;;
20976;SDS011;10647;51.016;3.720;2023-05-10T12:57:41;34.73;;;18.42;;
20976;SDS011;10647;51.016;3.720;2023-05-10T13:00:09;47.60;;;19.50;;
20976;SDS011;10647;51.016;3.720;2023-05-10T13:02:39;45.15;;;20.70;;
20976;SDS011;10647;51.016;3.720;2023-05-10T13:05:06;53.65;;;22.77;;
20976;SDS011;10647;51.016;3.720;2023-05-10T13:07:40;57.33;;;24.47;;
20976;SDS011;10647;51.016;3.720;2023-05-10T13:10:09;49.47;;;21.03;;
20976;SDS011;10647;51.016;3.720;2023-05-10T13:12:37;30.67;;;13.77;;
20976;SDS011;10647;51.016;3.720;2023-05-10T13:15:05;21.13;;;11.40;;
20976;SDS011;10647;51.016;3.720;2023-05-10T13:17:35;31.03;;;14.90;;
20976;SDS011;10647;51.016;3.720;2023-05-10T13:22:51;39.27;;;16.40;;
20976;SDS011;10647;51.016;3.720;2023-05-10T13:25:19;45.20;;;18.73;;
20976;SDS011;10647;51.016;3.720;2023-05-10T13:27:47;49.70;;;20.37;;
20976;SDS011;10647;51.016;3.720;2023-05-10T13:30:20;48.43;;;22.60;;
20976;SDS011;10647;51.016;3.720;2023-05-10T13:32:49;50.43;;;23.60;;
20976;SDS011;10647;51.016;3.720;2023-05-10T13:35:17;55.07;;;24.43;;
20976;SDS011;10647;51.016;3.720;2023-05-10T13:37:44;60.47;;;25.90;;
20976;SDS011;10647;51.016;3.720;2023-05-10T13:40:12;71.67;;;26.60;;
20976;SDS011;10647;51.016;3.720;2023-05-10T13:45:28;57.33;;;24.70;;
20976;SDS011;10647;51.016;3.720;2023-05-10T13:47:55;58.10;;;25.17;;
20976;SDS011;10647;51.016;3.720;2023-05-10T13:50:29;54.87;;;24.20;;
20976;SDS011;10647;51.016;3.720;2023-05-10T13:52:57;51.27;;;25.50;;
20976;SDS011;10647;51.016;3.720;2023-05-10T13:55:24;57.63;;;25.17;;
20976;SDS011;10647;51.016;3.720;2023-05-10T13:57:52;60.07;;;25.37;;
20976;SDS011;10647;51.016;3.720;2023-05-10T14:00:19;58.00;;;26.07;;
20976;SDS011;10647;51.016;3.720;2023-05-10T14:02:47;54.67;;;25.53;;
20976;SDS011;10647;51.016;3.720;2023-05-10T14:05:15;60.30;;;25.33;;
20976;SDS011;10647;51.016;3.720;2023-05-10T14:07:42;58.52;;;26.68;;
20976;SDS011;10647;51.016;3.720;2023-05-10T14:10:10;61.53;;;26.23;;
20976;SDS011;10647;51.016;3.720;2023-05-10T14:12:37;63.07;;;27.37;;
20976;SDS011;10647;51.016;3.720;2023-05-10T14:15:05;55.67;;;25.67;;
20976;SDS011;10647;51.016;3.720;2023-05-10T14:17:33;59.30;;;25.50;;
20976;SDS011;10647;51.016;3.720;2023-05-10T14:20:01;55.47;;;23.83;;
20976;SDS011;10647;51.016;3.720;2023-05-10T14:22:29;52.43;;;22.40;;
20976;SDS011;10647;51.016;3.720;2023-05-10T14:24:57;66.25;;;24.30;;
20976;SDS011;10647;51.016;3.720;2023-05-10T14:27:24;64.90;;;25.87;;
20976;SDS011;10647;51.016;3.720;2023-05-10T14:29:52;63.52;;;25.10;;
20976;SDS011;10647;51.016;3.720;2023-05-10T14:32:19;49.63;;;22.53;;
20976;SDS011;10647;51.016;3.720;2023-05-10T14:34:47;42.88;;;19.10;;
20976;SDS011;10647;51.016;3.720;2023-05-10T14:37:14;45.50;;;19.40;;
20976;SDS011;10647;51.016;3.720;2023-05-10T14:39:42;42.37;;;19.17;;
20976;SDS011;10647;51.016;3.720;2023-05-10T14:42:13;38.30;;;19.50;;
20976;SDS011;10647;51.016;3.720;2023-05-10T14:44:40;43.45;;;19.07;;
20976;SDS011;10647;51.016;3.720;2023-05-10T14:47:08;45.13;;;18.47;;
20976;SDS011;10647;51.016;3.720;2023-05-10T14:49:35;35.38;;;17.50;;
20976;SDS011;10647;51.016;3.720;2023-05-10T14:52:03;40.33;;;17.43;;
20976;SDS011;10647;51.016;3.720;2023-05-10T14:54:31;33.73;;;16.95;;
20976;SDS011;10647;51.016;3.720;2023-05-10T14:57:00;29.72;;;15.10;;
20976;SDS011;10647;51.016;3.720;2023-05-10T14:59:28;32.00;;;15.93;;
20976;SDS011;10647;51.016;3.720;2023-05-10T15:01:55;31.03;;;15.60;;
20976;SDS011;10647;51.016;3.720;2023-05-10T15:04:23;26.17;;;13.65;;
20976;SDS011;10647;51.016;3.720;2023-05-10T15:06:50;32.80;;;14.25;;
20976;SDS011;10647;51.016;3.720;2023-05-10T15:09:18;27.82;;;12.95;;
20976;SDS011;10647;51.016;3.720;2023-05-10T15:11:47;29.00;;;13.80;;
20976;SDS011;10647;51.016;3.720;2023-05-10T15:14:15;33.28;;;13.80;;
20976;SDS011;10647;51.016;3.720;2023-05-10T15:16:44;26.65;;;13.10;;
20976;SDS011;10647;51.016;3.720;2023-05-10T15:19:12;29.72;;;12.73;;
20976;SDS011;10647;51.016;3.720;2023-05-10T15:21:40;26.65;;;12.63;;
20976;SDS011;10647;51.016;3.720;2023-05-10T15:24:09;23.18;;;10.80;;
20976;SDS011;10647;51.016;3.720;2023-05-10T15:26:36;24.07;;;9.25;;
20976;SDS011;10647;51.016;3.720;2023-05-10T15:29:04;19.40;;;6.62;;
20976;SDS011;10647;51.016;3.720;2023-05-10T15:31:31;14.95;;;6.25;;
20976;SDS011;10647;51.016;3.720;2023-05-10T15:34:00;18.57;;;6.90;;
20976;SDS011;10647;51.016;3.720;2023-05-10T15:36:29;15.23;;;6.55;;